Time;durP1;ratioP1;P1;durP2;ratioP2;P2;SDS_P1;SDS_P2;PMS_P1;PMS_P2;Temp;Humidity;BMP_temperature;BMP_pressure;BME280_temperature;BME280_humidity;BME280_pressure;Samples;Min_cycle;Max_cycle;Signal;HPM_P1;HPM_P2
2021/05/18 00:02:05;;;;;;;1.52;0.90;;;10.80;75.20;;;10.27;61.93;94223.59;5124907;28;20562;-80
2021/05/18 00:04:32;;;;;;;1.00;1.00;;;10.90;75.50;;;10.32;61.88;94226.41;5087072;28;20210;-80
2021/05/18 00:06:59;;;;;;;0.93;0.93;;;10.90;75.60;;;10.36;61.89;94226.81;5068006;28;20209;-80
2021/05/18 00:12:12;;;;;;;0.80;0.75;;;10.90;75.80;;;10.42;61.68;94220.75;4807159;29;20228;-81
2021/05/18 00:14:39;;;;;;;1.10;1.10;;;10.90;75.60;;;10.43;62.06;94213.72;4699764;29;20216;-80
2021/05/18 00:19:08;;;;;;;0.90;0.90;;;10.90;75.70;;;10.41;61.49;94209.47;5132662;27;20582;-80
2021/05/18 00:21:36;;;;;;;0.95;0.95;;;10.90;75.20;;;10.43;61.95;94204.00;5091588;28;20210;-81
2021/05/18 00:24:04;;;;;;;0.82;0.82;;;11.00;75.60;;;10.44;62.05;94203.00;5091465;28;20229;-81
2021/05/18 00:26:31;;;;;;;1.00;1.00;;;11.00;75.80;;;10.41;62.25;94199.00;5088917;28;20732;-80
2021/05/18 00:28:57;;;;;;;0.90;0.90;;;11.00;75.90;;;10.48;62.33;94203.41;5038001;28;20275;-82
2021/05/18 00:31:24;;;;;;;1.00;1.00;;;11.00;76.00;;;10.48;62.36;94206.03;4994752;28;20232;-81
2021/05/18 00:33:51;;;;;;;1.00;1.00;;;11.00;76.10;;;10.52;62.07;94209.81;4969116;28;20230;-81
2021/05/18 00:36:17;;;;;;;1.00;1.00;;;11.00;76.10;;;10.60;62.12;94214.03;4844564;29;20224;-81
2021/05/18 00:40:51;;;;;;;1.48;0.82;;;11.00;76.10;;;10.66;62.22;94213.22;5148228;27;20621;-81
2021/05/18 00:43:18;;;;;;;1.05;1.05;;;11.10;76.00;;;10.73;61.94;94216.59;5106403;28;20308;-80
2021/05/18 00:45:49;;;;;;;1.00;1.00;;;11.10;76.10;;;10.76;62.44;94221.41;5085362;28;20339;-81
2021/05/18 00:48:19;;;;;;;1.20;0.93;;;11.20;76.20;;;10.79;61.89;94218.38;5074852;28;20226;-80
2021/05/18 00:51:08;;;;;;;1.00;1.00;;;11.20;76.30;;;10.86;61.87;94227.03;5011756;28;20217;-81
2021/05/18 00:53:38;;;;;;;1.58;1.10;;;11.30;76.30;;;10.92;61.77;94214.06;4858573;29;20245;-81
2021/05/18 00:58:55;;;;;;;0.98;0.98;;;11.40;76.30;;;11.00;61.73;94224.31;4541882;30;20345;-81
2021/05/18 01:01:28;;;;;;;1.05;1.00;;;11.40;76.20;;;11.00;62.25;94222.50;5135586;27;20324;-80
2021/05/18 01:03:55;;;;;;;1.13;1.02;;;11.40;76.40;;;10.99;62.02;94226.13;5067643;28;20217;-80
2021/05/18 01:06:29;;;;;;;1.67;0.90;;;11.40;76.20;;;11.00;62.11;94232.19;5075940;28;20692;-80
2021/05/18 01:09:09;;;;;;;1.25;1.15;;;11.50;76.30;;;11.00;62.18;94234.81;5063325;28;20767;-81
2021/05/18 01:11:47;;;;;;;0.90;0.90;;;11.50;76.40;;;11.01;62.21;94231.97;5033507;28;20207;-81
2021/05/18 01:14:17;;;;;;;0.93;0.93;;;11.50;76.40;;;11.05;61.94;94232.34;4917457;28;20228;-80
2021/05/18 01:16:49;;;;;;;1.20;1.10;;;11.50;76.30;;;11.07;61.98;94229.53;4827452;29;20244;-80
2021/05/18 01:19:20;;;;;;;1.67;0.88;;;11.50;77.10;;;11.11;61.69;94244.63;4562421;30;20334;-79
2021/05/18 01:23:41;;;;;;;1.02;0.80;;;11.50;76.10;;;11.06;62.07;94241.84;5119026;27;20554;-80
2021/05/18 01:26:10;;;;;;;0.80;0.80;;;11.60;76.10;;;11.09;62.14;94243.25;5108738;27;20203;-80
2021/05/18 01:28:37;;;;;;;0.93;0.93;;;11.60;76.00;;;11.10;61.85;94247.47;5091663;28;20696;-80
2021/05/18 01:31:06;;;;;;;1.00;1.00;;;11.60;75.90;;;11.11;61.70;94231.50;5041594;28;20226;-81
2021/05/18 01:33:34;;;;;;;0.95;0.95;;;11.60;76.00;;;11.15;61.68;94250.28;4963599;28;20225;-80
2021/05/18 01:36:07;;;;;;;1.83;1.20;;;11.60;76.00;;;11.17;61.81;94253.50;4883850;29;20629;-80
2021/05/18 01:38:42;;;;;;;0.90;0.90;;;11.60;76.20;;;11.21;61.47;94254.66;4813364;29;20457;-81
2021/05/18 01:44:01;;;;;;;1.05;1.05;;;11.60;75.70;;;11.15;61.48;94251.06;5124479;27;20328;-81
2021/05/18 01:46:30;;;;;;;0.85;0.85;;;11.70;75.80;;;11.09;61.32;94243.25;5067981;28;20201;-80
2021/05/18 01:49:09;;;;;;;0.90;0.90;;;11.60;75.70;;;11.01;61.08;94241.66;5092122;28;20274;-81
2021/05/18 01:51:47;;;;;;;0.93;0.93;;;11.60;75.70;;;10.92;61.13;94241.09;5053581;28;20598;-81
2021/05/18 01:54:23;;;;;;;0.77;0.77;;;11.60;75.70;;;10.84;61.62;94259.69;5005801;28;20262;-81
2021/05/18 01:59:35;;;;;;;1.25;1.20;;;11.50;75.70;;;10.69;62.04;94257.34;4815754;29;20212;-80
2021/05/18 02:02:09;;;;;;;1.10;1.00;;;11.40;75.60;;;10.64;62.06;94252.72;4599573;30;20235;-81
2021/05/18 02:04:47;;;;;;;1.15;1.05;;;11.30;75.50;;;10.59;62.30;94260.44;5150461;27;20383;-80
2021/05/18 02:07:24;;;;;;;1.00;1.00;;;11.30;75.60;;;10.53;62.13;94248.97;5103504;27;20228;-82
2021/05/18 02:09:52;;;;;;;1.20;1.10;;;11.20;75.90;;;10.47;62.81;94256.84;5071954;28;20217;-81
2021/05/18 02:12:21;;;;;;;1.00;1.00;;;11.20;75.90;;;10.49;62.27;94265.31;5053415;28;20231;-80
2021/05/18 02:14:54;;;;;;;1.00;1.00;;;11.10;75.90;;;10.46;62.47;94263.09;4994258;28;20664;-81
2021/05/18 02:17:36;;;;;;;1.40;1.10;;;11.10;76.00;;;10.51;62.55;94258.03;4910449;28;20223;-80
2021/05/18 02:25:39;;;;;;;1.17;1.10;;;11.10;76.60;;;10.67;62.79;94283.00;5150505;27;20627;-81
2021/05/18 02:28:13;;;;;;;1.23;1.23;;;11.10;76.90;;;10.75;62.55;94282.75;5087202;28;20225;-81
2021/05/18 02:30:47;;;;;;;1.20;1.10;;;11.10;76.80;;;10.80;62.89;94282.13;5083198;28;20206;-79
2021/05/18 02:33:23;;;;;;;1.52;1.20;;;11.20;77.10;;;10.87;62.80;94281.06;5019022;28;20251;-80
2021/05/18 02:35:51;;;;;;;1.38;1.27;;;11.20;77.90;;;10.90;62.71;94279.88;4979462;28;20213;-80
2021/05/18 02:38:17;;;;;;;1.10;1.00;;;11.30;77.10;;;10.95;62.67;94292.34;4928937;28;20247;-80
2021/05/18 02:40:50;;;;;;;1.30;1.20;;;11.30;77.00;;;10.95;62.51;94284.47;4849693;29;20216;-80
2021/05/18 02:43:23;;;;;;;0.90;0.90;;;11.40;76.90;;;10.97;62.56;94277.22;4681718;30;20299;-80
2021/05/18 02:46:17;;;;;;;1.08;0.98;;;11.40;76.90;;;10.99;62.42;94290.94;5131170;27;20323;-80
2021/05/18 02:51:32;;;;;;;1.00;1.00;;;11.50;76.60;;;11.05;62.19;94298.75;5012210;28;20566;-80
2021/05/18 02:53:59;;;;;;;1.63;1.10;;;11.50;76.60;;;11.02;62.26;94293.94;4982817;28;20281;-81
2021/05/18 02:59:08;;;;;;;1.05;1.05;;;11.60;76.80;;;11.14;61.92;94294.06;4953835;28;20232;-80
2021/05/18 03:01:37;;;;;;;1.95;0.90;;;11.60;76.80;;;11.17;62.25;94298.91;4749765;29;20237;-80
2021/05/18 03:05:09;;;;;;;1.02;1.02;;;11.60;76.70;;;11.21;62.05;94294.03;5149979;27;20630;-81
2021/05/18 03:07:37;;;;;;;1.15;1.13;;;11.60;76.60;;;11.23;62.15;94299.06;5068574;28;20226;-80
2021/05/18 03:10:07;;;;;;;1.77;0.90;;;11.60;76.60;;;11.24;62.28;94303.31;5048231;28;20261;-81
2021/05/18 03:12:35;;;;;;;1.10;1.10;;;11.70;76.60;;;11.27;61.94;94308.16;5053626;28;20227;-80
2021/05/18 03:15:03;;;;;;;1.10;1.10;;;11.70;76.50;;;11.28;62.16;94307.94;4951724;28;20216;-80
2021/05/18 03:17:36;;;;;;;0.90;0.90;;;11.70;76.60;;;11.32;61.70;94310.94;4914415;29;20277;-80
2021/05/18 03:20:14;;;;;;;1.05;1.05;;;11.80;76.50;;;11.32;61.51;94306.50;4828372;29;20207;-80
2021/05/18 03:23:50;;;;;;;0.90;0.90;;;11.70;76.60;;;11.32;61.66;94309.13;5134831;27;20648;-81
2021/05/18 03:26:17;;;;;;;0.90;0.90;;;11.80;76.40;;;11.33;61.83;94310.72;5102720;28;20297;-79
2021/05/18 03:28:46;;;;;;;1.10;0.93;;;11.80;76.40;;;11.35;61.83;94313.13;5069541;28;20308;-81
2021/05/18 03:34:27;;;;;;;1.10;1.00;;;11.80;76.50;;;11.34;62.09;94314.19;5108749;27;20249;-80
2021/05/18 03:36:45;;;;;;;1.20;0.90;;;11.80;76.40;;;11.35;61.79;94300.84;4942844;28;20207;-80
2021/05/18 03:39:12;;;;;;;1.30;1.20;;;11.80;76.40;;;11.41;61.84;94316.75;4869090;29;20230;-79
2021/05/18 03:42:02;;;;;;;1.73;1.40;;;11.80;76.40;;;11.45;61.69;94318.75;4762298;29;20742;-83
2021/05/18 03:44:49;;;;;;;1.73;1.40;;;11.80;76.40;;;11.48;61.59;94320.94;5150479;27;20382;-81
2021/05/18 03:53:08;;;;;;;1.50;1.40;;;11.90;76.30;;;11.52;61.67;94316.88;5081090;28;20226;-81
2021/05/18 03:58:38;;;;;;;1.10;1.10;;;11.90;76.30;;;11.66;61.64;94335.19;4792102;29;20337;-81
2021/05/18 04:17:24;;;;;;;1.60;1.20;;;12.20;76.10;;;11.87;61.01;94338.47;4945826;28;22138;-79
2021/05/18 04:20:24;;;;;;;1.10;1.10;;;12.20;76.10;;;11.87;61.00;94347.16;4936715;28;20211;-80
2021/05/18 04:23:09;;;;;;;1.30;1.20;;;12.20;76.10;;;11.90;60.95;94346.75;4752653;29;20336;-80
2021/05/18 04:41:12;;;;;;;1.42;1.33;;;12.50;77.20;;;12.35;60.38;94355.50;4881106;29;20217;-82
2021/05/18 04:59:50;;;;;;;1.30;1.20;;;12.90;75.60;;;12.65;59.32;94387.19;5018176;28;20215;-84
2021/05/18 05:09:50;;;;;;;1.23;1.20;;;13.00;75.30;;;12.71;59.09;94391.56;5134284;27;20643;-81
2021/05/18 05:14:47;;;;;;;1.20;1.20;;;13.10;75.20;;;12.81;59.13;94397.13;5103267;28;20706;-81
2021/05/18 05:17:14;;;;;;;1.60;1.50;;;13.10;75.30;;;12.88;58.97;94401.53;5090062;28;20924;-80
2021/05/18 05:19:43;;;;;;;2.55;2.08;;;13.20;75.30;;;12.91;59.23;94403.72;5094987;28;20205;-81
2021/05/18 05:22:12;;;;;;;1.38;1.20;;;13.20;75.30;;;12.97;58.84;94405.47;5009416;28;20210;-80
2021/05/18 05:24:39;;;;;;;1.60;1.50;;;13.20;75.30;;;13.02;58.57;94402.19;4815932;29;20281;-84
2021/05/18 05:27:07;;;;;;;1.73;1.40;;;13.30;75.20;;;13.05;58.62;94410.44;4688228;30;20620;-82
2021/05/18 05:31:32;;;;;;;1.45;1.35;;;13.30;75.00;;;13.15;58.86;94423.09;5149677;27;20646;-81
2021/05/18 05:33:59;;;;;;;1.48;1.38;;;13.40;75.10;;;13.13;58.11;94410.16;5089487;28;20223;-81
2021/05/18 05:36:26;;;;;;;1.60;1.50;;;13.50;75.00;;;13.21;58.45;94414.31;5076805;28;20268;-81
2021/05/18 05:39:00;;;;;;;1.40;1.30;;;13.40;74.80;;;13.25;58.19;94422.59;5037054;28;20712;-81
2021/05/18 05:41:27;;;;;;;2.60;1.50;;;13.50;74.90;;;13.28;58.28;94415.06;4981068;28;20306;-81
2021/05/18 05:43:55;;;;;;;1.75;1.30;;;13.50;74.80;;;13.32;57.97;94419.84;4947211;28;20626;-81
2021/05/18 05:46:22;;;;;;;1.27;1.27;;;13.60;74.70;;;13.31;57.76;94419.06;4898502;29;20212;-81
2021/05/18 05:48:53;;;;;;;1.50;1.20;;;13.60;74.60;;;13.36;58.10;94416.56;4702331;29;20308;-81
2021/05/18 05:53:59;;;;;;;1.08;1.08;;;13.60;74.70;;;13.68;58.58;94420.88;5134236;27;20628;-82
2021/05/18 05:56:30;;;;;;;1.48;1.38;;;13.70;75.30;;;13.81;57.97;94418.06;5084019;28;20660;-81
2021/05/18 05:59:02;;;;;;;1.35;1.27;;;13.80;75.20;;;13.90;57.97;94415.91;5030559;28;20258;-82
2021/05/18 06:01:31;;;;;;;1.90;1.10;;;13.90;75.30;;;13.97;57.82;94421.88;5037701;28;20302;-81
2021/05/18 06:03:59;;;;;;;2.10;1.20;;;14.00;75.00;;;14.03;56.48;94428.91;5020680;28;20240;-81
2021/05/18 06:06:27;;;;;;;1.20;1.20;;;14.10;74.70;;;14.11;57.79;94426.97;5013141;28;20255;-81
2021/05/18 06:08:54;;;;;;;1.20;1.20;;;14.10;74.60;;;14.24;57.50;94418.84;4933903;28;20323;-82
2021/05/18 06:11:28;;;;;;;1.30;1.20;;;14.20;74.80;;;14.36;56.86;94437.34;4787053;29;20231;-82
2021/05/18 06:14:36;;;;;;;1.42;1.30;;;14.30;74.60;;;14.37;55.15;94437.13;5128301;27;20319;-81
2021/05/18 06:17:34;;;;;;;1.42;1.25;;;14.50;73.60;;;14.45;56.10;94435.19;5063296;28;20218;-81
2021/05/18 06:48:37;;;;;;;1.42;1.20;;;15.00;72.60;;;15.14;55.46;94440.72;5041221;28;20228;-81
2021/05/18 06:51:04;;;;;;;2.05;1.25;;;15.20;73.10;;;15.26;54.55;94453.91;4961409;28;20721;-80
2021/05/18 06:53:31;;;;;;;1.63;1.40;;;15.20;72.60;;;15.32;54.09;94447.72;4926553;28;20235;-81
2021/05/18 06:56:08;;;;;;;1.10;1.10;;;15.30;72.50;;;15.40;54.69;94459.75;5150443;27;20379;-82
2021/05/18 07:00:07;;;;;;;1.48;1.10;;;15.40;72.60;;;15.52;54.88;94454.44;5075599;27;20225;-81
2021/05/18 07:01:45;;;;;;;2.05;1.67;;;15.60;72.90;;;15.51;51.11;94472.16;5072822;28;20585;-81
2021/05/18 07:04:13;;;;;;;1.50;1.42;;;15.60;71.00;;;15.48;51.90;94455.97;5067722;28;20218;-80
2021/05/18 07:06:48;;;;;;;1.70;1.20;;;15.60;70.30;;;15.42;52.94;94462.19;4986649;28;20234;-80
2021/05/18 07:09:15;;;;;;;1.45;1.23;;;15.60;70.90;;;15.37;51.88;94470.78;4898926;29;20694;-81
2021/05/18 07:11:41;;;;;;;1.40;1.30;;;15.50;70.30;;;15.32;52.42;94466.19;4817960;29;20204;-80
2021/05/18 07:16:39;;;;;;;4.45;1.45;;;15.60;70.40;;;15.22;52.25;94473.91;5144822;27;20841;-80
2021/05/18 07:19:06;;;;;;;1.15;1.10;;;15.60;70.30;;;15.25;52.43;94473.44;5104972;27;20259;-80
2021/05/18 07:21:34;;;;;;;1.77;1.30;;;15.60;70.60;;;15.27;52.73;94474.03;5107625;28;20606;-80
2021/05/18 07:24:01;;;;;;;1.30;1.23;;;15.50;70.50;;;15.29;52.89;94471.16;5092778;28;20717;-81
2021/05/18 07:26:28;;;;;;;1.30;1.20;;;15.50;70.50;;;15.31;52.35;94474.38;5057584;28;20226;-81
2021/05/18 07:28:55;;;;;;;1.48;1.15;;;15.50;70.40;;;15.27;52.35;94466.09;4954970;28;20238;-81
2021/05/18 07:31:22;;;;;;;2.13;1.35;;;15.50;70.10;;;15.19;52.53;94467.25;4909083;29;20203;-81
2021/05/18 07:33:48;;;;;;;1.00;1.00;;;15.50;70.10;;;15.11;53.23;94478.19;4836067;29;22250;-80
2021/05/18 07:38:42;;;;;;;1.35;1.25;;;15.40;70.50;;;15.10;53.39;94470.47;5137332;27;20345;-81
2021/05/18 07:41:09;;;;;;;1.20;1.20;;;15.40;70.60;;;15.19;53.68;94475.16;5085631;28;20220;-81
2021/05/18 07:43:36;;;;;;;1.70;1.23;;;15.40;70.90;;;15.27;53.80;94478.50;5070127;28;20714;-81
2021/05/18 07:46:05;;;;;;;1.42;1.30;;;15.40;71.10;;;15.33;53.74;94474.91;5028720;28;20562;-81
2021/05/18 07:59:38;;;;;;;1.27;1.20;;;15.50;70.30;;;14.96;52.93;94518.22;5100600;28;20271;-81
2021/05/18 08:07:37;;;;;;;1.40;1.30;;;15.10;69.60;;;14.32;53.45;94524.06;4936676;28;20310;-80
2021/05/18 08:12:41;;;;;;;1.48;1.10;;;14.80;70.20;;;14.18;54.57;94522.63;4828019;29;24084;-80
2021/05/18 10:36:13;;;;;;;1.13;0.90;;;16.50;68.20;;;16.19;50.31;94489.31;4750552;29;20271;-81
2021/05/18 10:41:37;;;;;;;1.17;1.17;;;16.40;68.10;;;16.32;50.39;94478.44;5149765;27;20634;-81
2021/05/18 10:44:06;;;;;;;1.38;1.25;;;16.40;68.40;;;16.43;49.89;94480.22;5085710;28;20221;-80
2021/05/18 10:47:01;;;;;;;1.52;1.30;;;16.40;68.20;;;16.51;48.90;94478.22;5093510;28;20261;-80
2021/05/18 10:49:35;;;;;;;1.50;1.20;;;16.50;67.90;;;16.60;49.54;94474.09;5083362;28;20222;-81
2021/05/18 10:52:09;;;;;;;1.92;1.30;;;16.50;68.00;;;16.69;48.82;94477.19;5002834;28;20626;-80
2021/05/18 10:54:41;;;;;;;1.45;1.35;;;16.60;67.40;;;16.79;49.04;94467.53;4938146;28;20218;-79
2021/05/18 10:57:11;;;;;;;2.03;1.38;;;16.60;67.80;;;16.95;48.98;94473.91;4800955;29;20301;-81
2021/05/18 11:02:58;;;;;;;2.88;1.55;;;16.90;67.30;;;17.40;46.14;94473.97;5142667;27;20585;-80
2021/05/18 11:05:25;;;;;;;2.13;1.58;;;17.10;66.30;;;17.58;46.31;94473.69;5100623;28;20203;-81
2021/05/18 11:07:52;;;;;;;2.50;1.48;;;17.20;66.70;;;17.82;45.47;94464.66;5070322;28;20274;-80
2021/05/18 11:10:22;;;;;;;1.35;1.23;;;17.40;66.50;;;17.95;46.27;94472.28;5079542;28;20208;-79
2021/05/18 11:12:51;;;;;;;1.95;1.35;;;17.50;66.30;;;17.98;46.36;94477.09;5024868;28;20231;-80
2021/05/18 11:15:21;;;;;;;1.35;1.25;;;17.70;66.30;;;17.89;47.22;94494.47;5020430;28;20219;-79
2021/05/18 11:17:50;;;;;;;2.70;1.30;;;17.70;66.60;;;17.41;49.73;94496.81;4996038;28;20237;-80
2021/05/18 11:24:53;;;;;;;2.75;1.30;;;17.60;68.30;;;15.64;53.34;94502.78;5150351;27;20634;-79
2021/05/18 11:27:28;;;;;;;1.30;1.20;;;17.20;67.80;;;15.14;53.55;94513.91;5090854;28;20208;-78
2021/05/18 11:29:55;;;;;;;1.35;1.20;;;16.80;68.10;;;14.77;54.84;94500.88;5053721;28;20202;-79
2021/05/18 11:32:22;;;;;;;1.77;1.65;;;16.40;68.40;;;14.50;55.57;94501.28;5045533;28;20201;-78
2021/05/18 11:34:52;;;;;;;1.83;1.30;;;16.10;69.20;;;14.35;56.28;94502.50;5067029;28;20219;-77
2021/05/18 11:37:20;;;;;;;1.92;1.40;;;15.80;69.70;;;14.30;56.94;94493.66;5004764;28;20201;-79
2021/05/18 11:39:47;;;;;;;1.85;1.50;;;15.60;70.00;;;14.25;57.17;94497.75;4978151;28;20710;-79
2021/05/18 11:42:34;;;;;;;2.47;1.20;;;15.50;70.80;;;14.28;57.15;94491.25;4794932;29;20222;-79
2021/05/18 11:45:18;;;;;;;1.20;1.10;;;15.40;70.50;;;14.34;56.74;94503.53;5131622;27;20784;-79
2021/05/18 11:47:50;;;;;;;1.45;1.35;;;15.30;71.00;;;14.33;56.97;94512.47;5063320;28;20257;-79
2021/05/18 11:50:25;;;;;;;1.13;1.10;;;15.30;70.90;;;14.34;56.07;94508.81;5062468;28;20207;-82
2021/05/18 11:52:54;;;;;;;1.40;1.30;;;15.20;70.70;;;14.33;56.39;94507.22;5069816;28;20224;-79
2021/05/18 11:55:29;;;;;;;1.30;1.20;;;15.20;70.70;;;14.36;56.46;94506.75;5041389;28;20222;-79
2021/05/18 11:57:59;;;;;;;1.27;1.25;;;15.20;70.90;;;14.43;56.21;94503.19;4994941;28;20787;-78
2021/05/18 12:00:33;;;;;;;1.25;1.15;;;15.20;70.90;;;14.50;55.90;94499.44;4866114;28;20217;-78
2021/05/18 12:03:11;;;;;;;1.85;1.30;;;15.20;71.10;;;14.60;56.56;94495.44;4597177;30;20778;-79
2021/05/18 12:05:54;;;;;;;1.30;1.20;;;15.20;71.30;;;14.79;55.90;94494.34;5135753;27;20303;-79
2021/05/18 12:08:29;;;;;;;1.50;1.40;;;15.30;71.30;;;15.04;55.80;94483.56;5081095;28;20230;-80
2021/05/18 12:11:20;;;;;;;1.50;1.40;;;15.30;71.40;;;15.40;55.76;94480.09;5053225;28;20255;-77
2021/05/18 12:13:49;;;;;;;2.03;1.40;;;15.50;72.00;;;15.82;55.10;94483.34;5037704;28;20225;-81
2021/05/18 12:16:24;;;;;;;1.40;1.25;;;15.70;72.20;;;16.40;54.50;94503.72;5016187;28;20232;-78
2021/05/18 12:19:00;;;;;;;1.65;1.40;;;16.00;72.30;;;16.74;52.06;94486.00;4949780;28;20674;-78
2021/05/18 12:21:30;;;;;;;1.30;1.20;;;16.40;70.40;;;16.91;51.12;94493.94;4822883;29;20217;-77
2021/05/18 12:26:29;;;;;;;2.38;1.50;;;16.70;70.00;;;17.35;52.03;94490.63;5136978;27;20311;-79
2021/05/18 12:29:03;;;;;;;1.23;1.13;;;17.10;70.90;;;18.08;52.81;94492.34;5115330;27;20247;-80
2021/05/18 12:31:34;;;;;;;1.20;1.20;;;17.50;71.90;;;18.87;49.70;94490.09;5081603;28;20251;-79
2021/05/18 12:34:05;;;;;;;1.55;1.38;;;18.00;70.70;;;19.54;47.03;94487.88;5033974;28;20223;-78
2021/05/18 12:36:47;;;;;;;1.17;1.08;;;18.60;68.30;;;20.27;46.65;94483.66;4974098;28;20213;-79
2021/05/18 12:39:16;;;;;;;1.30;0.95;;;19.20;68.80;;;20.85;47.27;94472.00;4859473;29;20248;-78
2021/05/18 12:42:00;;;;;;;0.90;0.90;;;19.80;68.20;;;21.18;42.52;94491.16;4780803;29;20728;-79
2021/05/18 12:45:07;;;;;;;1.00;1.00;;;20.40;65.40;;;21.06;43.65;94499.47;5150270;27;20640;-80
2021/05/18 12:47:40;;;;;;;0.98;0.90;;;20.70;65.00;;;20.79;42.64;94496.00;5091358;27;20698;-79
2021/05/18 12:50:13;;;;;;;0.80;0.80;;;20.80;63.50;;;20.52;41.53;94490.09;5088942;28;20205;-79
2021/05/18 12:52:49;;;;;;;1.20;1.10;;;20.80;63.10;;;20.33;41.25;94506.56;5026741;28;20267;-79
2021/05/18 12:55:28;;;;;;;0.95;0.95;;;20.70;62.30;;;20.30;41.91;94509.78;4957250;28;20219;-80
2021/05/18 12:57:56;;;;;;;0.93;0.88;;;20.70;62.50;;;20.44;40.62;94510.06;4785890;29;20317;-79
2021/05/18 13:00:30;;;;;;;1.35;0.95;;;20.70;62.00;;;20.59;40.10;94506.63;4801345;29;20217;-80
2021/05/18 13:06:26;;;;;;;1.02;1.02;;;20.90;61.60;;;20.31;39.94;94514.84;5150175;27;20643;-80
2021/05/18 13:08:56;;;;;;;0.95;0.88;;;20.90;60.10;;;20.00;38.97;94505.94;5086599;28;20285;-80
2021/05/18 13:13:59;;;;;;;0.88;0.80;;;20.70;60.70;;;20.45;41.08;94509.00;4969470;28;20247;-79
2021/05/18 13:16:35;;;;;;;2.05;0.90;;;20.80;61.50;;;20.98;41.73;94490.13;4851916;29;20304;-80
2021/05/18 13:19:12;;;;;;;1.00;0.80;;;21.00;62.10;;;21.53;40.88;94513.53;4815490;29;20237;-80
2021/05/18 13:21:56;;;;;;;0.93;0.70;;;21.40;62.10;;;21.75;37.20;94498.03;4640310;30;20256;-79
2021/05/18 13:27:32;;;;;;;0.77;0.73;;;22.00;58.50;;;21.57;37.48;94501.28;5102301;27;20693;-79
2021/05/18 13:29:59;;;;;;;0.98;0.98;;;22.10;58.80;;;21.90;39.71;94489.16;5098044;27;20205;-80
2021/05/18 13:32:26;;;;;;;0.77;0.77;;;22.20;60.20;;;22.50;40.25;94484.84;5112513;27;21447;-80
2021/05/18 13:34:54;;;;;;;0.93;0.70;;;22.50;61.10;;;23.14;39.88;94490.22;5107706;27;20288;-80
2021/05/18 13:37:21;;;;;;;0.70;0.70;;;23.00;61.10;;;23.80;39.69;94487.97;5061791;28;20220;-84
2021/05/18 13:40:08;;;;;;;0.77;0.77;;;23.60;61.10;;;24.55;36.71;94486.47;4859222;29;20222;-83
2021/05/18 13:42:35;;;;;;;0.82;0.82;;;24.30;58.90;;;24.79;34.17;94488.28;4828260;29;20242;-81
2021/05/18 13:46:29;;;;;;;0.80;0.80;;;24.70;56.30;;;24.90;36.22;94470.97;5138458;27;20656;-81
2021/05/18 13:49:09;;;;;;;0.60;0.60;;;25.20;57.40;;;25.24;35.23;94472.53;5081106;28;20238;-81
2021/05/18 13:51:36;;;;;;;0.73;0.73;;;25.60;56.30;;;25.61;34.81;94478.06;5099286;28;20254;-81
2021/05/18 13:54:07;;;;;;;0.70;0.70;;;25.90;55.70;;;25.99;33.73;94482.44;5085582;28;20266;-81
2021/05/18 13:56:33;;;;;;;1.05;0.90;;;26.20;54.90;;;26.45;31.25;94489.56;5033226;28;20244;-81
2021/05/18 13:59:00;;;;;;;0.85;0.70;;;26.60;52.90;;;26.48;32.17;94482.78;4976195;28;20281;-82
2021/05/18 14:01:27;;;;;;;0.70;0.68;;;26.80;52.50;;;26.22;30.72;94483.34;4943440;28;20222;-80
2021/05/18 14:03:54;;;;;;;0.77;0.77;;;26.90;50.90;;;25.69;30.56;94492.69;4731513;29;20256;-80
2021/05/18 14:11:10;;;;;;;1.13;1.00;;;26.10;50.10;;;23.29;32.29;94495.47;5080199;28;20205;-80
2021/05/18 14:13:42;;;;;;;0.77;0.77;;;25.40;50.30;;;22.45;34.02;94516.94;5053419;28;20312;-81
2021/05/18 14:16:14;;;;;;;2.25;1.00;;;24.60;50.90;;;21.69;34.73;94516.97;5026638;28;20613;-80
2021/05/18 14:18:41;;;;;;;1.05;1.05;;;23.90;51.40;;;20.88;35.88;94530.91;5005159;28;20607;-81
2021/05/18 14:21:08;;;;;;;0.90;0.90;;;23.10;52.20;;;20.26;36.26;94527.31;4902866;29;20314;-81
2021/05/18 14:26:25;;;;;;;1.20;0.90;;;21.80;54.20;;;19.25;38.57;94524.69;5145938;27;21066;-80
2021/05/18 14:28:53;;;;;;;0.90;0.90;;;21.10;55.20;;;18.83;39.49;94548.25;5049761;28;20226;-80
2021/05/18 14:31:23;;;;;;;2.95;1.00;;;20.60;56.20;;;18.51;40.12;94549.03;5083503;28;20209;-81
2021/05/18 14:33:50;;;;;;;1.10;1.10;;;20.00;56.80;;;18.29;41.43;94550.94;5029404;28;20238;-80
2021/05/18 14:36:18;;;;;;;1.10;1.00;;;19.60;57.90;;;18.06;41.75;94553.59;4994306;28;20208;-80
2021/05/18 14:39:03;;;;;;;1.20;1.10;;;19.30;58.60;;;18.03;42.06;94555.97;4904883;29;20232;-81
2021/05/18 14:44:37;;;;;;;18.60;10.75;;;18.80;60.40;;;18.51;42.73;94538.41;5148340;27;20954;-81
2021/05/18 14:47:10;;;;;;;4.47;3.60;;;18.80;60.80;;;18.89;41.92;94525.19;5101356;27;20668;-80
2021/05/18 14:55:11;;;;;;;0.90;0.90;;;19.40;60.50;;;20.62;39.08;94520.22;5035277;28;20674;-80
2021/05/18 14:57:39;;;;;;;0.77;0.70;;;19.90;60.20;;;21.26;38.40;94514.63;4946562;28;20253;-80
2021/05/18 15:00:07;;;;;;;0.90;0.90;;;20.40;60.00;;;21.91;37.09;94514.00;4802051;29;20242;-80
2021/05/18 15:02:33;;;;;;;0.70;0.70;;;21.00;59.10;;;22.60;38.38;94516.84;4649168;30;20258;-81
2021/05/18 15:05:11;;;;;;;0.70;0.70;;;21.60;60.20;;;23.26;34.78;94514.75;5149583;27;20380;-80
2021/05/18 15:07:42;;;;;;;1.17;0.90;;;22.20;57.10;;;23.63;34.94;94509.84;5105430;27;20222;-80
2021/05/18 15:10:10;;;;;;;0.73;0.73;;;22.80;56.80;;;24.08;35.57;94498.91;5110247;28;20265;-80
2021/05/18 15:12:37;;;;;;;0.65;0.65;;;23.30;57.40;;;24.66;35.04;94497.88;5089783;28;20249;-80
2021/05/18 15:15:05;;;;;;;0.75;0.70;;;23.80;56.90;;;25.21;33.86;94486.53;5030184;28;20730;-81
2021/05/18 15:17:32;;;;;;;1.17;0.98;;;24.40;56.00;;;25.44;32.79;94488.59;5003844;28;20235;-81
2021/05/18 15:19:59;;;;;;;0.95;0.90;;;24.80;54.70;;;25.47;34.18;94480.72;4874426;28;20312;-81
2021/05/18 15:22:31;;;;;;;4.20;0.90;;;25.10;55.50;;;25.84;34.31;94486.22;4695952;30;20252;-81
2021/05/18 15:26:52;;;;;;;0.80;0.80;;;25.40;55.80;;;26.32;34.13;94479.63;5150419;27;21142;-81
2021/05/18 15:29:21;;;;;;;0.75;0.75;;;25.90;55.40;;;26.72;34.27;94490.56;5094524;27;20222;-81
2021/05/18 15:31:48;;;;;;;0.70;0.70;;;26.20;55.10;;;27.16;32.16;94477.44;5094884;27;20647;-81
2021/05/18 15:34:18;;;;;;;0.63;0.60;;;26.60;54.00;;;27.51;33.78;94471.47;5094154;28;20691;-80
2021/05/18 15:36:46;;;;;;;0.65;0.65;;;26.90;54.60;;;27.90;32.50;94467.16;5058505;28;20225;-81
2021/05/18 15:39:13;;;;;;;0.60;0.60;;;27.20;53.70;;;28.36;33.14;94460.44;4988146;28;20220;-82
2021/05/18 15:41:43;;;;;;;0.80;0.63;;;27.60;53.90;;;28.77;31.05;94463.78;4882072;29;20319;-81
2021/05/18 15:44:10;;;;;;;0.70;0.70;;;27.90;51.60;;;29.01;30.82;94466.00;4689733;29;20250;-81
2021/05/18 15:49:18;;;;;;;0.90;0.80;;;28.30;51.00;;;29.19;30.20;94474.84;5130383;27;20651;-81
2021/05/18 15:51:45;;;;;;;0.70;0.70;;;28.90;50.00;;;29.30;30.53;94463.75;5084396;28;20206;-82
2021/05/18 15:54:13;;;;;;;0.60;0.60;;;29.00;49.50;;;29.49;29.67;94464.16;5078193;28;20238;-82
2021/05/18 15:56:40;;;;;;;0.47;0.47;;;29.20;48.90;;;29.58;29.64;94464.13;5052954;28;20266;-82
2021/05/18 15:59:06;;;;;;;0.57;0.57;;;29.30;49.00;;;29.48;28.21;94475.28;4994568;28;20350;-82
2021/05/18 16:01:37;;;;;;;0.82;0.60;;;29.40;46.60;;;29.40;29.22;94471.50;4950217;28;20206;-81
2021/05/18 16:04:08;;;;;;;0.57;0.57;;;29.40;47.80;;;29.29;27.31;94470.22;4906808;28;20233;-83
2021/05/18 16:06:40;;;;;;;0.50;0.50;;;29.40;46.50;;;29.03;27.62;94481.88;4763390;29;20239;-81
2021/05/18 16:11:09;;;;;;;0.55;0.55;;;29.40;46.10;;;28.63;27.49;94472.03;5150581;27;20950;-81
2021/05/18 16:13:39;;;;;;;0.50;0.50;;;29.10;45.90;;;28.43;27.18;94478.88;5109769;28;20772;-82
2021/05/18 16:16:10;;;;;;;0.60;0.60;;;28.90;45.10;;;28.10;27.32;94485.47;5030350;28;20303;-81
2021/05/18 16:18:38;;;;;;;0.60;0.60;;;28.80;45.00;;;27.84;27.29;94482.66;5020832;28;20217;-81
2021/05/18 16:21:08;;;;;;;0.60;0.60;;;28.60;45.40;;;27.72;27.21;94475.19;4965769;28;20218;-82
2021/05/18 16:23:38;;;;;;;0.70;0.70;;;28.30;45.70;;;27.60;27.43;94483.03;4843553;29;20231;-82